createdAt,value
2022-10-27T00:01:28.031Z,46.81
2022-10-27T00:03:54.848Z,49.46
2022-10-27T00:06:21.616Z,50.75
2022-10-27T00:08:48.357Z,49.68
2022-10-27T00:11:15.148Z,48.04
2022-10-27T00:13:41.894Z,46.83
2022-10-27T00:16:08.661Z,46.89
2022-10-27T00:18:35.490Z,46.43
2022-10-27T00:21:02.298Z,46.25
2022-10-27T00:23:29.067Z,45.77
2022-10-27T00:25:55.849Z,45.82
2022-10-27T00:28:22.658Z,46.00
2022-10-27T00:30:50.499Z,45.86
2022-10-27T00:33:17.333Z,45.59
2022-10-27T00:35:44.098Z,45.59
2022-10-27T00:38:10.843Z,45.82
2022-10-27T00:40:37.576Z,47.53
2022-10-27T00:43:04.392Z,46.09
2022-10-27T00:45:31.179Z,51.53
2022-10-27T00:47:57.930Z,51.51
2022-10-27T00:50:24.748Z,49.76
2022-10-27T00:52:51.501Z,48.09
2022-10-27T00:55:18.325Z,47.38
2022-10-27T00:57:45.108Z,46.95
2022-10-27T01:00:11.848Z,46.70
2022-10-27T01:02:38.684Z,46.56
2022-10-27T01:05:05.461Z,46.43
2022-10-27T01:07:32.318Z,45.75
2022-10-27T01:09:59.083Z,45.71
2022-10-27T01:12:25.839Z,45.87
2022-10-27T01:14:52.585Z,45.62
2022-10-27T01:17:19.321Z,45.43
2022-10-27T01:19:46.068Z,45.38
2022-10-27T01:22:12.816Z,47.90
2022-10-27T01:24:39.618Z,47.07
2022-10-27T01:27:06.404Z,49.12
2022-10-27T01:29:33.144Z,50.84
2022-10-27T01:31:59.896Z,49.92
2022-10-27T01:34:26.664Z,48.44
2022-10-27T01:36:53.432Z,47.40
2022-10-27T01:39:20.927Z,47.15
2022-10-27T01:41:47.735Z,46.88
2022-10-27T01:44:14.497Z,46.36
2022-10-27T01:46:41.262Z,46.52
2022-10-27T01:49:08.019Z,45.71
2022-10-27T01:51:34.771Z,46.06
2022-10-27T01:54:01.607Z,45.91
2022-10-27T01:56:28.358Z,45.57
2022-10-27T01:58:55.096Z,45.07
2022-10-27T02:01:22.037Z,45.61
2022-10-27T02:03:48.885Z,47.82
2022-10-27T02:06:15.689Z,47.01
2022-10-27T02:08:42.491Z,48.92
2022-10-27T02:11:09.344Z,50.59
2022-10-27T02:13:36.105Z,49.55
2022-10-27T02:16:02.902Z,48.08
2022-10-27T02:18:29.655Z,46.87
2022-10-27T02:20:56.466Z,47.07
2022-10-27T02:23:23.264Z,46.77
2022-10-27T02:25:50.058Z,45.89
2022-10-27T02:28:16.816Z,46.15
2022-10-27T02:30:43.575Z,45.95
2022-10-27T02:33:10.338Z,45.46
2022-10-27T02:35:37.133Z,45.54
2022-10-27T02:38:03.878Z,45.19
2022-10-27T02:40:30.707Z,45.44
2022-10-27T02:42:57.504Z,44.94
2022-10-27T02:45:24.304Z,47.47
2022-10-27T02:47:51.048Z,46.69
2022-10-27T02:50:17.789Z,50.16
2022-10-27T02:52:44.533Z,51.21
2022-10-27T02:55:11.284Z,50.13
2022-10-27T02:57:38.036Z,48.27
2022-10-27T03:00:04.777Z,47.10
2022-10-27T03:02:31.533Z,47.07
2022-10-27T03:04:58.277Z,46.63
2022-10-27T03:07:25.017Z,46.41
2022-10-27T03:09:51.777Z,45.50
2022-10-27T03:12:18.533Z,45.95
2022-10-27T03:14:45.289Z,45.88
2022-10-27T03:17:12.056Z,45.69
2022-10-27T03:19:38.800Z,45.59
2022-10-27T03:22:05.571Z,45.73
2022-10-27T03:24:32.329Z,47.58
2022-10-27T03:26:59.504Z,46.44
2022-10-27T03:29:26.974Z,50.08
2022-10-27T03:31:53.732Z,50.76
2022-10-27T03:34:21.250Z,49.01
2022-10-27T03:36:48.181Z,47.77
2022-10-27T03:39:14.946Z,47.39
2022-10-27T03:41:41.721Z,46.61
2022-10-27T03:44:08.474Z,46.65
2022-10-27T03:46:35.243Z,46.40
2022-10-27T03:49:01.985Z,45.72
2022-10-27T03:51:29.059Z,45.48
2022-10-27T03:53:55.830Z,45.62
2022-10-27T03:56:22.663Z,45.38
2022-10-27T03:58:49.437Z,45.33
2022-10-27T04:01:16.385Z,45.45
2022-10-27T04:03:43.249Z,44.81
2022-10-27T04:06:09.987Z,45.28
2022-10-27T04:08:36.736Z,47.63
2022-10-27T04:11:03.485Z,46.73
2022-10-27T04:13:30.952Z,49.36
2022-10-27T04:15:57.890Z,49.79
2022-10-27T04:18:24.654Z,48.48
2022-10-27T04:20:51.822Z,47.45
2022-10-27T04:23:18.579Z,46.80
2022-10-27T04:25:45.374Z,46.51
2022-10-27T04:28:12.146Z,46.14
2022-10-27T04:30:38.905Z,46.42
2022-10-27T04:33:05.696Z,45.85
2022-10-27T04:35:35.567Z,45.70
2022-10-27T04:38:02.465Z,45.68
2022-10-27T04:40:29.221Z,45.56
2022-10-27T04:42:56.062Z,45.31
2022-10-27T04:45:22.830Z,45.05
2022-10-27T04:47:49.891Z,45.57
2022-10-27T04:50:16.912Z,47.72
2022-10-27T04:52:44.598Z,46.37
2022-10-27T04:55:11.484Z,49.57
2022-10-27T04:57:38.236Z,49.93
2022-10-27T05:00:05.021Z,48.39
2022-10-27T05:02:34.679Z,47.37
2022-10-27T05:05:04.577Z,47.17
2022-10-27T05:07:31.347Z,46.36
2022-10-27T05:09:58.111Z,46.08
2022-10-27T05:12:24.855Z,45.45
2022-10-27T05:14:51.630Z,45.86
2022-10-27T05:17:19.530Z,45.64
2022-10-27T05:19:46.525Z,45.09
2022-10-27T05:22:13.313Z,45.01
2022-10-27T05:24:40.063Z,44.85
2022-10-27T05:27:06.854Z,44.68
2022-10-27T05:29:33.706Z,47.02
2022-10-27T05:32:00.457Z,46.70
2022-10-27T05:34:27.210Z,48.85
2022-10-27T05:36:53.971Z,49.78
2022-10-27T05:39:20.699Z,48.33
2022-10-27T05:41:47.486Z,47.19
2022-10-27T05:44:14.264Z,46.85
2022-10-27T05:46:41.061Z,45.83
2022-10-27T05:49:07.889Z,46.24
2022-10-27T05:51:34.644Z,46.13
2022-10-27T05:54:01.414Z,45.81
2022-10-27T05:56:28.190Z,45.41
2022-10-27T05:58:55.019Z,45.31
2022-10-27T06:01:22.026Z,45.07
2022-10-27T06:03:48.833Z,44.97
2022-10-27T06:06:15.592Z,45.50
2022-10-27T06:08:42.345Z,47.42
2022-10-27T06:11:09.084Z,45.86
2022-10-27T06:13:35.844Z,50.13
2022-10-27T06:16:02.605Z,49.92
2022-10-27T06:18:29.360Z,48.45
2022-10-27T06:20:56.129Z,47.29
2022-10-27T06:23:22.881Z,46.96
2022-10-27T06:25:49.682Z,46.23
2022-10-27T06:28:16.445Z,45.49
2022-10-27T06:30:43.223Z,45.65
2022-10-27T06:33:09.960Z,45.30
2022-10-27T06:35:36.787Z,45.08
2022-10-27T06:38:03.545Z,44.99
2022-10-27T06:40:30.361Z,44.79
2022-10-27T06:43:12.826Z,44.95
2022-10-27T06:45:39.775Z,47.68
2022-10-27T06:48:06.806Z,46.41
2022-10-27T06:50:33.544Z,49.24
2022-10-27T06:53:01.299Z,51.12
2022-10-27T06:55:28.088Z,48.99
2022-10-27T06:57:55.261Z,47.47
2022-10-27T07:00:22.229Z,46.61
2022-10-27T07:02:49.000Z,46.51
2022-10-27T07:05:15.745Z,46.03
2022-10-27T07:07:42.497Z,45.57
2022-10-27T07:10:09.330Z,45.35
2022-10-27T07:12:36.112Z,45.25
2022-10-27T07:15:02.852Z,45.30
2022-10-27T07:17:29.704Z,45.19
2022-10-27T07:19:56.516Z,44.51
2022-10-27T07:22:23.259Z,44.53
2022-10-27T07:24:50.122Z,45.63
2022-10-27T07:27:16.935Z,47.13
2022-10-27T07:29:43.735Z,50.16
2022-10-27T07:32:10.530Z,51.53
2022-10-27T07:34:37.311Z,48.68
2022-10-27T07:37:04.195Z,47.37
2022-10-27T07:39:30.953Z,46.25
2022-10-27T07:41:57.703Z,45.80
2022-10-27T07:44:24.469Z,45.92
2022-10-27T07:46:51.237Z,45.03
2022-10-27T07:49:17.980Z,45.20
2022-10-27T07:51:44.735Z,45.10
2022-10-27T07:54:11.519Z,44.92
2022-10-27T07:56:38.288Z,44.92
2022-10-27T07:59:05.104Z,44.59
2022-10-27T08:01:32.089Z,45.78
2022-10-27T08:03:58.927Z,49.41
2022-10-27T08:06:25.752Z,51.65
2022-10-27T08:08:52.550Z,48.65
2022-10-27T08:11:19.325Z,46.68
2022-10-27T08:13:46.157Z,45.96
2022-10-27T08:16:12.909Z,45.41
2022-10-27T08:18:39.648Z,44.89
2022-10-27T08:21:06.390Z,44.97
2022-10-27T08:23:33.193Z,45.53
2022-10-27T08:25:59.949Z,45.00
2022-10-27T08:28:26.721Z,45.01
2022-10-27T08:30:53.565Z,44.40
2022-10-27T08:33:20.317Z,44.45
2022-10-27T08:35:47.160Z,49.43
2022-10-27T08:38:14.842Z,51.85
2022-10-27T08:40:41.698Z,49.89
2022-10-27T08:43:08.477Z,46.65
2022-10-27T08:45:35.467Z,46.17
2022-10-27T08:48:02.257Z,45.80
2022-10-27T08:50:29.078Z,45.25
2022-10-27T08:52:57.815Z,44.82
2022-10-27T08:55:25.531Z,44.92
2022-10-27T08:57:52.689Z,44.59
2022-10-27T09:00:19.680Z,44.66
2022-10-27T09:02:46.540Z,44.33
2022-10-27T09:05:16.545Z,44.47
2022-10-27T09:07:44.354Z,49.41
2022-10-27T09:10:11.099Z,51.64
2022-10-27T09:12:37.829Z,49.16
2022-10-27T09:15:04.608Z,46.74
2022-10-27T09:17:31.817Z,45.73
2022-10-27T09:20:01.258Z,45.19
2022-10-27T09:22:28.036Z,45.03
2022-10-27T09:24:54.812Z,45.01
2022-10-27T09:27:21.550Z,44.70
2022-10-27T09:29:48.342Z,44.48
2022-10-27T09:32:15.103Z,44.55
2022-10-27T09:34:41.918Z,47.52
2022-10-27T09:37:08.661Z,51.08
2022-10-27T09:39:35.413Z,51.09
2022-10-27T09:42:02.177Z,46.71
2022-10-27T09:44:29.406Z,46.37
2022-10-27T09:46:56.161Z,45.05
2022-10-27T09:49:22.969Z,45.45
2022-10-27T09:51:49.738Z,45.22
2022-10-27T09:54:16.498Z,45.06
2022-10-27T09:56:43.241Z,44.95
2022-10-27T09:59:10.076Z,44.76
2022-10-27T10:01:36.861Z,47.81
2022-10-27T10:04:05.228Z,50.89
2022-10-27T10:06:34.262Z,51.33
2022-10-27T10:09:01.057Z,47.37
2022-10-27T10:11:27.805Z,46.54
2022-10-27T10:13:54.568Z,45.86
2022-10-27T10:16:21.345Z,45.11
2022-10-27T10:18:48.260Z,45.42
2022-10-27T10:21:15.035Z,45.32
2022-10-27T10:23:41.786Z,45.28
2022-10-27T10:26:08.641Z,44.89
2022-10-27T10:28:35.441Z,44.93
2022-10-27T10:31:02.250Z,45.61
2022-10-27T10:33:29.274Z,49.70
2022-10-27T10:35:56.230Z,51.60
2022-10-27T10:38:22.979Z,49.03
2022-10-27T10:40:49.721Z,46.88
2022-10-27T10:43:16.620Z,45.92
2022-10-27T10:45:43.535Z,45.51
2022-10-27T10:48:10.338Z,45.46
2022-10-27T10:50:37.113Z,45.06
2022-10-27T10:53:04.019Z,45.13
2022-10-27T10:55:30.858Z,44.61
2022-10-27T10:57:57.730Z,46.86
2022-10-27T11:00:24.616Z,50.78
2022-10-27T11:02:54.299Z,52.05
2022-10-27T11:07:51.505Z,46.14
2022-10-27T11:10:19.375Z,45.68
2022-10-27T11:12:46.153Z,45.59
2022-10-27T11:15:12.898Z,45.29
2022-10-27T11:17:39.642Z,45.31
2022-10-27T11:20:06.607Z,44.73
2022-10-27T11:22:33.377Z,45.01
2022-10-27T11:25:00.274Z,47.51
2022-10-27T11:27:27.213Z,51.03
2022-10-27T11:29:54.024Z,52.36
2022-10-27T11:32:20.769Z,47.78
2022-10-27T11:34:47.512Z,46.09
2022-10-27T11:37:14.276Z,46.03
2022-10-27T11:39:41.208Z,45.09
2022-10-27T11:42:07.972Z,45.14
2022-10-27T11:44:34.720Z,45.05
2022-10-27T11:47:01.756Z,45.13
2022-10-27T11:49:28.604Z,44.69
2022-10-27T11:51:55.342Z,49.40
2022-10-27T11:54:22.193Z,51.52
2022-10-27T11:56:49.009Z,50.30
2022-10-27T11:59:15.878Z,46.99
2022-10-27T12:01:42.868Z,46.26
2022-10-27T12:04:09.757Z,45.41
2022-10-27T12:06:36.512Z,45.49
2022-10-27T12:09:03.277Z,45.57
2022-10-27T12:11:30.047Z,45.14
2022-10-27T12:13:56.799Z,45.24
2022-10-27T12:16:23.580Z,45.91
2022-10-27T12:18:50.350Z,50.24
2022-10-27T12:21:17.092Z,52.25
2022-10-27T12:23:43.962Z,48.79
2022-10-27T12:26:10.728Z,46.26
2022-10-27T12:28:37.474Z,46.01
2022-10-27T12:31:04.253Z,45.69
2022-10-27T12:33:31.040Z,45.55
2022-10-27T12:35:57.782Z,45.50
2022-10-27T12:38:24.526Z,44.90
2022-10-27T12:40:51.289Z,44.90
2022-10-27T12:43:20.423Z,48.09
2022-10-27T12:45:47.338Z,51.67
2022-10-27T12:48:14.097Z,51.12
2022-10-27T12:50:40.842Z,47.05
2022-10-27T12:53:10.109Z,46.19
2022-10-27T12:55:37.149Z,45.79
2022-10-27T12:58:03.910Z,45.08
2022-10-27T13:00:30.650Z,44.87
2022-10-27T13:02:57.420Z,44.94
2022-10-27T13:05:24.201Z,44.79
2022-10-27T13:07:57.345Z,45.05
2022-10-27T13:10:27.393Z,50.23
2022-10-27T13:12:57.178Z,52.37
2022-10-27T13:15:23.953Z,49.43
2022-10-27T13:17:51.015Z,46.76
2022-10-27T13:20:18.040Z,46.08
2022-10-27T13:22:44.817Z,45.92
2022-10-27T13:25:11.576Z,45.68
2022-10-27T13:27:38.322Z,45.24
2022-10-27T13:30:05.213Z,45.08
2022-10-27T13:32:32.724Z,47.71
2022-10-27T13:34:59.479Z,51.81
2022-10-27T13:37:26.233Z,52.39
2022-10-27T13:39:53.081Z,47.56
2022-10-27T13:44:51.541Z,46.06
2022-10-27T13:47:18.338Z,45.02
2022-10-27T13:49:45.103Z,45.50
2022-10-27T13:52:14.849Z,45.49
2022-10-27T13:54:41.604Z,45.28
2022-10-27T13:57:08.352Z,44.82
2022-10-27T13:59:35.107Z,48.86
2022-10-27T14:02:01.971Z,51.67
2022-10-27T14:04:28.799Z,51.26
2022-10-27T14:06:55.574Z,47.35
2022-10-27T14:09:22.348Z,46.42
2022-10-27T14:11:49.086Z,45.86
2022-10-27T14:14:15.821Z,45.92
2022-10-27T14:16:42.623Z,45.67
2022-10-27T14:19:09.450Z,45.55
2022-10-27T14:21:36.267Z,45.60
2022-10-27T14:24:03.025Z,45.40
2022-10-27T14:26:29.822Z,50.13
2022-10-27T14:28:56.565Z,51.62
2022-10-27T14:31:26.113Z,50.04
2022-10-27T14:33:52.877Z,46.58
2022-10-27T14:36:24.424Z,46.58
2022-10-27T14:38:51.206Z,46.08
2022-10-27T14:41:18.001Z,45.35
2022-10-27T14:43:44.818Z,45.20
2022-10-27T14:46:11.576Z,45.57
2022-10-27T14:48:38.324Z,45.63
2022-10-27T14:53:36.771Z,51.68
2022-10-27T14:56:03.524Z,52.64
2022-10-27T14:58:30.271Z,48.28
2022-10-27T15:00:57.036Z,47.19
2022-10-27T15:03:23.809Z,46.38
2022-10-27T15:05:50.558Z,45.83
2022-10-27T15:08:17.307Z,46.02
2022-10-27T15:10:44.053Z,46.04
2022-10-27T15:13:10.798Z,45.50
2022-10-27T15:15:42.032Z,45.61
2022-10-27T15:18:09.236Z,51.06
2022-10-27T15:20:36.059Z,52.35
2022-10-27T15:23:02.852Z,49.22
2022-10-27T15:25:29.597Z,47.16
2022-10-27T15:27:56.344Z,46.59
2022-10-27T15:30:23.189Z,46.04
2022-10-27T15:32:50.427Z,45.88
2022-10-27T15:35:17.377Z,45.84
2022-10-27T15:37:44.159Z,45.75
2022-10-27T15:40:10.908Z,45.41
2022-10-27T15:42:37.657Z,47.57
2022-10-27T15:45:04.425Z,51.46
2022-10-27T15:47:31.276Z,52.90
2022-10-27T15:49:58.117Z,48.35
2022-10-27T15:52:29.249Z,47.17
2022-10-27T15:54:56.084Z,47.08
2022-10-27T15:57:22.821Z,46.15
2022-10-27T15:59:49.576Z,46.01
2022-10-27T16:02:16.328Z,45.81
2022-10-27T16:04:47.342Z,45.28
2022-10-27T16:07:16.383Z,45.93
2022-10-27T16:09:43.161Z,50.23
2022-10-27T16:12:09.904Z,52.53
2022-10-27T16:14:36.659Z,50.36
2022-10-27T16:17:03.413Z,47.72
2022-10-27T16:19:30.165Z,47.23
2022-10-27T16:21:56.930Z,46.61
2022-10-27T16:24:24.905Z,46.33
2022-10-27T16:26:52.880Z,46.10
2022-10-27T16:29:19.645Z,45.93
2022-10-27T16:31:46.418Z,45.64
2022-10-27T16:34:15.098Z,47.43
2022-10-27T16:36:44.660Z,51.44
2022-10-27T16:39:11.410Z,53.27
2022-10-27T16:41:38.155Z,48.59
2022-10-27T16:44:04.916Z,47.23
2022-10-27T16:46:31.668Z,46.81
2022-10-27T16:48:58.490Z,46.51
2022-10-27T16:51:25.251Z,46.40
2022-10-27T16:53:52.004Z,46.24
2022-10-27T16:56:18.757Z,45.82
2022-10-27T16:58:45.811Z,46.02
2022-10-27T17:01:12.758Z,45.51
2022-10-27T17:03:39.600Z,48.73
2022-10-27T17:06:06.384Z,52.24
2022-10-27T17:08:33.124Z,52.54
2022-10-27T17:10:59.861Z,48.08
2022-10-27T17:13:26.753Z,47.70
2022-10-27T17:15:53.553Z,46.85
2022-10-27T17:18:20.302Z,46.61
2022-10-27T17:20:47.157Z,46.40
2022-10-27T17:23:13.966Z,46.23
2022-10-27T17:25:40.741Z,46.15
2022-10-27T17:28:07.496Z,45.87
2022-10-27T17:30:34.228Z,46.61
2022-10-27T17:33:00.996Z,50.71
2022-10-27T17:35:27.752Z,52.49
2022-10-27T17:37:54.927Z,50.41
2022-10-27T17:40:23.388Z,47.77
2022-10-27T17:42:50.144Z,47.16
2022-10-27T17:45:17.380Z,46.76
2022-10-27T17:47:44.520Z,46.08
2022-10-27T17:50:11.321Z,46.16
2022-10-27T17:52:38.104Z,46.10
2022-10-27T17:55:04.936Z,45.79
2022-10-27T17:57:31.756Z,45.66
2022-10-27T17:59:58.500Z,50.09
2022-10-27T18:02:25.318Z,52.18
2022-10-27T18:04:52.151Z,51.51
2022-10-27T18:07:18.978Z,48.65
2022-10-27T18:09:45.783Z,47.41
2022-10-27T18:12:12.555Z,47.46
2022-10-27T18:14:39.309Z,46.75
2022-10-27T18:17:07.617Z,46.50
2022-10-27T18:19:37.590Z,46.05
2022-10-27T18:22:04.396Z,45.97
2022-10-27T18:24:31.166Z,46.36
2022-10-27T18:26:57.939Z,45.14
2022-10-27T18:29:26.540Z,48.71
2022-10-27T18:31:53.675Z,52.10
2022-10-27T18:34:20.448Z,52.82
2022-10-27T18:36:47.197Z,48.83
2022-10-27T18:39:13.955Z,47.50
2022-10-27T18:41:40.816Z,47.22
2022-10-27T18:44:08.268Z,46.46
2022-10-27T18:46:36.279Z,46.67
2022-10-27T18:49:04.008Z,46.30
2022-10-27T18:51:30.789Z,45.93
2022-10-27T18:53:57.613Z,46.27
2022-10-27T18:56:24.792Z,45.90
2022-10-27T18:58:51.538Z,49.65
2022-10-27T19:01:18.354Z,51.87
2022-10-27T19:03:47.314Z,52.54
2022-10-27T19:06:16.053Z,49.12
2022-10-27T19:08:42.873Z,47.39
2022-10-27T19:11:09.682Z,46.84
2022-10-27T19:13:37.947Z,46.77
2022-10-27T19:16:04.682Z,46.39
2022-10-27T19:18:31.509Z,46.61
2022-10-27T19:20:58.442Z,45.99
2022-10-27T19:23:25.219Z,46.24
2022-10-27T19:25:53.045Z,46.05
2022-10-27T19:28:20.123Z,48.46
2022-10-27T19:30:46.866Z,46.70
2022-10-27T19:33:13.653Z,50.69
2022-10-27T19:35:40.442Z,51.50
2022-10-27T19:38:07.180Z,49.83
2022-10-27T19:40:33.946Z,48.95
2022-10-27T19:43:00.697Z,47.60
2022-10-27T19:45:27.922Z,47.71
2022-10-27T19:47:55.152Z,47.14
2022-10-27T19:50:22.100Z,46.88
2022-10-27T19:52:48.861Z,46.57
2022-10-27T19:55:15.620Z,46.54
2022-10-27T19:57:42.778Z,46.21
2022-10-27T20:00:09.525Z,46.61
2022-10-27T20:02:36.869Z,46.52
2022-10-27T20:05:03.806Z,48.27
2022-10-27T20:07:30.551Z,46.29
2022-10-27T20:09:57.313Z,50.32
2022-10-27T20:12:24.061Z,52.07
2022-10-27T20:14:50.810Z,49.98
2022-10-27T20:17:19.434Z,48.69
2022-10-27T20:19:46.176Z,48.12
2022-10-27T20:22:12.922Z,47.46
2022-10-27T20:24:39.693Z,47.25
2022-10-27T20:27:06.459Z,46.95
2022-10-27T20:29:35.564Z,47.01
2022-10-27T20:32:02.673Z,46.96
2022-10-27T20:34:29.418Z,46.32
2022-10-27T20:36:56.222Z,46.27
2022-10-27T20:39:23.130Z,46.21
2022-10-27T20:41:49.915Z,45.94
2022-10-27T20:44:16.685Z,48.67
2022-10-27T20:46:43.573Z,49.45
2022-10-27T20:49:10.317Z,54.12
2022-10-27T20:51:37.123Z,51.26
2022-10-27T20:54:03.940Z,49.24
2022-10-27T20:56:30.692Z,48.41
2022-10-27T20:58:57.488Z,48.00
2022-10-27T21:01:24.452Z,47.24
2022-10-27T21:03:51.322Z,47.01
2022-10-27T21:06:18.086Z,46.62
2022-10-27T21:08:44.862Z,46.87
2022-10-27T21:11:11.633Z,46.49
2022-10-27T21:13:38.489Z,46.60
2022-10-27T21:16:05.289Z,46.43
2022-10-27T21:18:32.104Z,48.22
2022-10-27T21:20:58.968Z,47.53
2022-10-27T21:23:25.833Z,48.10
2022-10-27T21:25:52.616Z,51.47
2022-10-27T21:28:19.425Z,51.64
2022-10-27T21:30:46.204Z,49.82
2022-10-27T21:33:12.960Z,48.70
2022-10-27T21:35:39.701Z,48.17
2022-10-27T21:38:06.488Z,47.51
2022-10-27T21:40:33.233Z,47.16
2022-10-27T21:43:00.022Z,47.19
2022-10-27T21:45:26.873Z,46.67
2022-10-27T21:47:53.830Z,46.80
2022-10-27T21:50:20.945Z,46.25
2022-10-27T21:52:47.745Z,46.33
2022-10-27T21:55:14.519Z,47.54
2022-10-27T21:57:42.996Z,51.08
2022-10-27T22:00:09.760Z,53.90
2022-10-27T22:02:36.510Z,50.15
2022-10-27T22:05:03.323Z,47.96
2022-10-27T22:07:30.108Z,47.56
2022-10-27T22:09:56.845Z,47.32
2022-10-27T22:12:23.635Z,47.21
2022-10-27T22:14:50.393Z,46.58
2022-10-27T22:17:17.153Z,46.56
2022-10-27T22:19:43.949Z,46.72
2022-10-27T22:22:10.715Z,46.12
2022-10-27T22:24:37.464Z,46.35
2022-10-27T22:27:04.228Z,49.32
2022-10-27T22:29:31.000Z,52.58
2022-10-27T22:31:57.773Z,53.21
2022-10-27T22:34:24.518Z,49.39
2022-10-27T22:36:51.282Z,48.23
2022-10-27T22:39:18.027Z,47.55
2022-10-27T22:41:44.765Z,47.08
2022-10-27T22:44:11.532Z,46.81
2022-10-27T22:46:38.293Z,46.86
2022-10-27T22:49:05.084Z,46.47
2022-10-27T22:51:31.852Z,46.16
2022-10-27T22:53:58.612Z,45.94
2022-10-27T22:56:25.375Z,50.25
2022-10-27T22:58:52.152Z,53.24
2022-10-27T23:01:19.114Z,51.75
2022-10-27T23:03:46.002Z,49.12
2022-10-27T23:06:12.778Z,47.88
2022-10-27T23:08:39.526Z,47.46
2022-10-27T23:11:06.267Z,47.18
2022-10-27T23:13:33.028Z,47.09
2022-10-27T23:15:59.781Z,46.56
2022-10-27T23:18:26.516Z,46.21
2022-10-27T23:20:53.282Z,46.17
2022-10-27T23:23:20.029Z,47.72
2022-10-27T23:25:46.778Z,51.48
2022-10-27T23:28:13.546Z,53.84
2022-10-27T23:30:40.292Z,50.79
2022-10-27T23:33:07.040Z,48.53
2022-10-27T23:35:33.836Z,48.22
2022-10-27T23:38:00.582Z,47.17
2022-10-27T23:40:27.331Z,46.86
2022-10-27T23:42:54.877Z,46.98
2022-10-27T23:45:22.196Z,46.50
2022-10-27T23:47:49.042Z,46.54
2022-10-27T23:50:15.996Z,46.42
2022-10-27T23:52:42.793Z,46.35
2022-10-27T23:55:09.535Z,46.50
2022-10-27T23:57:36.302Z,51.05
